Meteorología y climatología de Navarra
Datos de la estación - Meteo Navarra

Estación de Aralar GN

Altitud 1344 m.


Datos desde el 02/08/2020 hasta el 03/08/2020 en horario solar
Los datos son PROVISIONALES

Anterior Página 1 de 1 Siguiente Descargar: Formato para Excel 2000 o superior   Formato csv   Formato para OpenOffice Calc
Fecha Temperatura Humedad relativa Radiación global Insolación Precipitación Vel. viento 10 m Vel. viento 10 m Dir. viento 10 m
ºC % W/m² s l/m² m/s km/h º
02/08/2020 0:00 12.3 100 0.0 0 0.0 9.4 33.9 346
02/08/2020 0:10 12.3 100 0.0 0 0.1 9.0 32.5 346
02/08/2020 0:20 12.0 100 0.0 0 0.0 9.5 34.3 346
02/08/2020 0:30 11.8 100 0.0 0 0.0 10.0 36.0 344
02/08/2020 0:40 11.7 100 0.0 0 0.1 9.9 35.6 345
02/08/2020 0:50 11.8 100 0.0 0 0.0 9.0 32.5 345
02/08/2020 1:00 11.8 100 0.0 0 0.1 9.2 33.1 344
02/08/2020 1:10 11.7 100 0.0 0 0.1 9.3 33.6 345
02/08/2020 1:20 11.4 100 0.0 0 0.1 8.5 30.5 348
02/08/2020 1:30 11.3 100 0.0 0 0.1 8.4 30.1 343
02/08/2020 1:40 11.1 100 0.0 0 0.1 9.6 34.4 345
02/08/2020 1:50 11.1 100 0.0 0 0.1 9.1 32.6 346
02/08/2020 2:00 11.0 100 0.0 0 0.1 9.3 33.3 344
02/08/2020 2:10 10.9 100 0.0 0 0.0 9.1 32.8 343
02/08/2020 2:20 11.1 100 0.0 0 0.1 9.5 34.3 345
02/08/2020 2:30 11.2 100 0.0 0 0.0 8.0 28.9 342
02/08/2020 2:40 11.3 100 0.0 0 0.0 8.3 30.0 345
02/08/2020 2:50 11.4 100 0.0 0 0.1 8.1 29.2 346
02/08/2020 3:00 11.5 100 0.0 0 0.0 7.9 28.5 346
02/08/2020 3:10 11.5 100 0.0 0 0.0 8.3 30.0 345
02/08/2020 3:20 11.5 100 0.0 0 0.0 8.9 32.1 344
02/08/2020 3:30 11.4 100 0.0 0 0.0 9.2 33.2 348
02/08/2020 3:40 11.5 100 0.0 0 0.1 8.3 29.8 342
02/08/2020 3:50 11.5 100 0.0 0 0.0 8.4 30.3 351
02/08/2020 4:00 11.6 100 0.0 0 0.0 8.1 29.1 350
02/08/2020 4:10 11.5 100 0.0 0 0.0 7.7 27.7 349
02/08/2020 4:20 11.6 100 0.0 0 0.0 8.0 28.8 348
02/08/2020 4:30 11.6 100 0.0 0 0.0 6.8 24.5 346
02/08/2020 4:40 11.6 100 0.0 0 0.1 6.8 24.4 349
02/08/2020 4:50 11.6 100 0.0 0 0.1 6.8 24.4 342
02/08/2020 5:00 11.6 100 0.0 0 0.1 8.1 29.2 343
02/08/2020 5:10 11.7 100 0.0 0 0.0 6.7 24.2 341
02/08/2020 5:20 11.5 100 0.0 0 0.2 6.8 24.5 340
02/08/2020 5:30 11.4 100 0.0 0 0.1 8.0 28.8 344
02/08/2020 5:40 11.3 100 1.0 0 0.1 8.3 30.0 343
02/08/2020 5:50 11.3 100 17.6 0 0.1 8.7 31.2 343
02/08/2020 6:00 11.1 100 20.4 0 0.0 9.6 34.4 346
02/08/2020 6:10 11.1 100 21.9 0 0.0 9.2 33.2 346
02/08/2020 6:20 11.2 100 27.1 0 0.1 9.3 33.4 345
02/08/2020 6:30 11.2 100 39.5 0 0.0 7.6 27.4 341
02/08/2020 6:40 11.3 100 51.1 0 0.1 7.7 27.5 345
02/08/2020 6:50 11.2 100 65.0 0 0.1 7.8 28.0 342
02/08/2020 7:00 11.0 100 67.6 0 0.1 9.0 32.4 345
02/08/2020 7:10 10.9 100 75.2 0 0.1 8.4 30.2 344
02/08/2020 7:20 10.9 100 100.0 0 0.1 7.5 27.0 346
02/08/2020 7:30 11.1 100 125.8 0 0.1 7.2 25.9 340
02/08/2020 7:40 11.0 100 91.2 0 0.0 8.0 28.9 342
02/08/2020 7:50 11.0 100 107.6 0 0.1 8.4 30.2 347
02/08/2020 8:00 11.0 100 107.4 0 0.2 8.9 31.9 344
02/08/2020 8:10 10.7 100 91.8 0 0.2 9.0 32.3 344
02/08/2020 8:20 10.2 100 204.4 0 0.1 9.5 34.2 344
02/08/2020 8:30 10.4 100 187.8 0 0.2 9.7 34.8 344
02/08/2020 8:40 10.4 100 200.9 0 0.0 9.6 34.5 344
02/08/2020 8:50 10.5 100 178.2 0 0.2 7.9 28.3 347
02/08/2020 9:00 10.6 100 153.0 0 0.1 8.7 31.5 352
02/08/2020 9:10 10.6 100 178.0 0 0.1 7.7 27.8 343
02/08/2020 9:20 10.3 100 196.6 0 0.0 8.6 31.0 343
02/08/2020 9:30 10.4 100 232.1 0 0.1 8.7 31.4 344
02/08/2020 9:40 10.4 100 196.6 0 0.0 7.3 26.4 338
02/08/2020 9:50 10.5 100 232.1 0 0.0 6.7 24.0 339
02/08/2020 10:00 10.7 100 317.2 34 0.0 6.9 24.8 338
02/08/2020 10:10 11.0 100 579.3 540 0.0 7.2 26.0 337
02/08/2020 10:20 11.0 100 366.0 18 0.0 8.2 29.7 344
02/08/2020 10:30 11.1 100 368.5 12 0.0 8.3 29.9 344
02/08/2020 10:40 11.1 100 404.6 152 0.0 7.6 27.4 337
02/08/2020 10:50 11.0 100 515.4 408 0.0 7.2 26.0 338
02/08/2020 11:00 11.4 100 690.1 580 0.0 7.7 27.6 337
02/08/2020 11:10 11.4 100 548.7 316 0.0 7.2 25.8 338
02/08/2020 11:20 11.2 100 255.6 0 0.0 7.0 25.3 345
02/08/2020 11:30 11.1 100 235.6 0 0.0 5.4 19.4 341
02/08/2020 11:40 11.2 100 337.1 30 0.0 6.3 22.6 344
02/08/2020 11:50 10.9 100 209.6 0 0.0 6.5 23.5 345
02/08/2020 12:00 11.1 100 221.6 0 0.0 7.3 26.1 342
02/08/2020 12:10 11.0 100 376.4 14 0.0 8.7 31.2 342
02/08/2020 12:20 10.9 100 344.5 26 0.0 8.4 30.1 342
02/08/2020 12:30 11.0 100 409.5 82 0.0 6.7 24.0 338
02/08/2020 12:40 11.3 100 300.8 0 0.0 6.3 22.7 342
02/08/2020 12:50 11.4 100 249.8 0 0.0 5.6 20.0 339
02/08/2020 13:00 11.4 100 183.8 0 0.0 6.7 24.2 342
02/08/2020 13:10 11.3 100 213.1 0 0.0 6.9 24.7 340
02/08/2020 13:20 11.3 100 231.7 0 0.0 6.8 24.6 337
02/08/2020 13:30 11.6 100 232.5 0 0.0 7.6 27.4 343
02/08/2020 13:40 11.3 100 181.2 0 0.0 7.3 26.4 339
02/08/2020 13:50 11.2 100 136.1 0 0.0 7.1 25.5 343
02/08/2020 14:00 11.3 100 143.7 0 0.0 7.2 25.8 344
02/08/2020 14:10 11.3 100 129.4 0 0.1 7.4 26.5 346
02/08/2020 14:20 11.3 100 117.5 0 0.1 5.3 19.2 334
02/08/2020 14:30 11.3 100 177.3 0 0.0 7.3 26.1 340
02/08/2020 14:40 11.2 100 105.5 0 0.2 6.4 22.9 334
02/08/2020 14:50 10.8 100 146.9 0 0.0 6.8 24.5 335
02/08/2020 15:00 10.7 100 151.0 0 0.1 7.6 27.2 339
02/08/2020 15:10 10.6 100 182.5 0 0.0 6.9 25.0 331
02/08/2020 15:20 10.6 100 152.1 0 0.0 8.7 31.4 342
02/08/2020 15:30 10.5 100 197.7 0 0.0 9.3 33.4 342
02/08/2020 15:40 10.6 100 171.0 0 0.0 7.2 26.0 338
02/08/2020 15:50 10.7 100 193.0 0 0.0 6.8 24.5 335
02/08/2020 16:00 10.7 100 182.9 0 0.0 8.2 29.4 339
02/08/2020 16:10 10.7 100 181.1 0 0.0 7.6 27.3 337
02/08/2020 16:20 10.7 100 166.0 0 0.0 7.0 25.1 336
02/08/2020 16:30 10.7 100 205.9 12 0.0 7.4 26.6 336
02/08/2020 16:40 10.9 100 223.1 80 0.0 7.1 25.5 336
02/08/2020 16:50 11.0 100 104.1 0 0.0 6.0 21.7 334
02/08/2020 17:00 10.9 100 72.2 0 0.0 6.4 23.0 341
02/08/2020 17:10 10.9 100 62.5 0 0.0 6.3 22.8 335
02/08/2020 17:20 10.6 100 47.7 0 0.1 7.1 25.4 332
02/08/2020 17:30 10.3 100 40.1 0 0.0 7.3 26.3 341
02/08/2020 17:40 10.2 100 38.4 0 0.1 7.6 27.3 335
02/08/2020 17:50 10.1 100 55.7 0 0.0 7.5 26.8 335
02/08/2020 18:00 10.1 100 90.2 0 0.0 6.8 24.4 330
02/08/2020 18:10 10.2 100 39.8 0 0.0 7.5 27.0 336
02/08/2020 18:20 10.2 100 27.2 0 0.0 7.5 26.8 338
02/08/2020 18:30 10.3 100 7.0 0 0.0 6.7 23.9 336
02/08/2020 18:40 10.4 100 1.5 0 0.1 7.7 27.6 334
02/08/2020 18:50 10.3 100 0.0 0 0.0 8.4 30.2 343
02/08/2020 19:00 10.2 100 0.4 0 0.0 9.4 34.0 340
02/08/2020 19:10 10.1 100 0.0 0 0.0 10.2 36.6 342
02/08/2020 19:20 10.1 100 0.0 0 0.0 8.2 29.6 341
02/08/2020 19:30 10.3 100 0.0 0 0.0 8.4 30.3 343
02/08/2020 19:40 10.2 100 0.0 0 0.0 8.1 29.1 344
02/08/2020 19:50 10.0 100 0.0 0 0.1 9.0 32.2 343
02/08/2020 20:00 9.8 100 0.0 0 0.0 7.9 28.4 335
02/08/2020 20:10 9.7 100 0.0 0 0.0 8.4 30.3 335
02/08/2020 20:20 9.7 100 0.0 0 0.0 8.4 30.4 336
02/08/2020 20:30 9.7 100 0.0 0 0.0 9.0 32.4 336
02/08/2020 20:40 9.9 100 0.0 0 0.0 10.3 37.2 343
02/08/2020 20:50 10.0 100 0.0 0 0.0 10.1 36.3 342
02/08/2020 21:00 10.0 100 0.0 0 0.0 9.6 34.6 342
02/08/2020 21:10 9.9 100 0.0 0 0.0 9.1 32.7 343
02/08/2020 21:20 9.8 100 0.0 0 0.0 9.1 32.7 344
02/08/2020 21:30 9.8 100 0.0 0 0.0 8.8 31.5 340
02/08/2020 21:40 9.7 100 0.0 0 0.0 8.1 29.1 335
02/08/2020 21:50 9.8 100 0.0 0 0.0 7.5 27.1 340
02/08/2020 22:00 9.9 100 0.0 0 0.0 9.5 34.2 343
02/08/2020 22:10 9.8 100 0.0 0 0.0 8.8 31.5 345
02/08/2020 22:20 9.8 100 0.0 0 0.1 9.2 33.2 345
02/08/2020 22:30 9.8 100 0.0 0 0.0 8.7 31.4 344
02/08/2020 22:40 9.7 100 0.0 0 0.0 8.5 30.5 344
02/08/2020 22:50 9.7 100 0.0 0 0.0 7.0 25.3 343
02/08/2020 23:00 9.8 100 0.0 0 0.0 7.9 28.3 345
02/08/2020 23:10 9.8 100 0.0 0 0.0 8.0 28.9 340
02/08/2020 23:20 9.7 100 0.0 0 0.0 8.9 32.1 343
02/08/2020 23:30 9.7 100 0.0 0 0.0 8.0 28.7 338
02/08/2020 23:40 9.7 100 0.0 0 0.0 8.9 32.2 340
02/08/2020 23:50 9.8 100 0.0 0 0.0 9.1 32.8 345
Anterior Página 1 de 1 Siguiente
Los datos de precipitación registrados en estaciones que están en cumbres son inferiores a lo real, como consecuencia del efecto del viento y de la nieve.


NOTA: Tipo de datos según el color:
   - Valores diarios o 10 minutos correctos
   - Valores diarios calculados a partir de un número de datos 10 minutos menor que 144 y mayor que 120, o de un número de datos semihorarios menor que 48 y mayor que 40 (caso de las estaciones de INTIA y del Ministerio)
   - Valores diez minutos estimados


Contacto        Enlaces        Aviso legal